Time;durP1;ratioP1;P1;durP2;ratioP2;P2;SDS_P1;SDS_P2;PMS_P1;PMS_P2;Temp;Humidity;BMP_temperature;BMP_pressure;BME280_temperature;BME280_humidity;BME280_pressure;Samples;Min_cycle;Max_cycle;Signal;HPM_P1;HPM_P2
2023/02/06 00:01:44;;;;;;;51.78;35.90;;;;;;;-0.16;47.08;100972.06;5091594;28;20027;-37
2023/02/06 00:04:12;;;;;;;24.23;15.85;;;;;;;-0.10;46.19;100977.66;5091577;28;20028;-37
2023/02/06 00:06:38;;;;;;;13.02;7.30;;;;;;;-0.28;46.42;100985.22;5091690;28;20028;-37
2023/02/06 00:09:05;;;;;;;16.58;8.75;;;;;;;-0.41;45.83;100987.16;5092032;28;20032;-37
2023/02/06 00:11:30;;;;;;;6.15;3.28;;;;;;;-0.53;46.27;100989.03;5091566;28;20104;-37
2023/02/06 00:13:56;;;;;;;8.45;5.82;;;;;;;-0.23;45.52;100990.09;5091880;28;20693;-37
2023/02/06 00:16:26;;;;;;;9.25;4.03;;;;;;;-0.44;46.10;100975.16;5091753;28;20510;-37
2023/02/06 00:18:53;;;;;;;34.78;21.25;;;;;;;-0.56;45.58;100967.47;5091543;28;20463;-37
2023/02/06 00:21:20;;;;;;;28.45;19.25;;;;;;;-0.77;45.87;100965.63;5091238;28;20403;-37
2023/02/06 00:23:50;;;;;;;20.23;15.63;;;;;;;-0.59;45.99;100978.19;5091517;28;20059;-37
2023/02/06 00:26:16;;;;;;;35.85;27.80;;;;;;;-0.69;45.89;100947.50;5091763;28;20035;-38
2023/02/06 00:28:42;;;;;;;20.00;16.80;;;;;;;-0.78;45.75;100957.88;5091339;28;20023;-37
2023/02/06 00:31:07;;;;;;;43.90;31.23;;;;;;;-0.67;45.68;100973.59;5091344;28;20028;-37
2023/02/06 00:33:33;;;;;;;77.22;34.42;;;;;;;-0.67;45.56;100986.69;5090969;28;20200;-37
2023/02/06 00:35:59;;;;;;;105.72;50.40;;;;;;;-0.84;46.25;100981.00;5091472;28;20729;-37
2023/02/06 00:38:24;;;;;;;76.38;38.25;;;;;;;-0.84;46.16;100962.69;5091395;28;20032;-37
2023/02/06 00:40:50;;;;;;;24.85;14.05;;;;;;;-0.90;44.10;100985.88;5091224;28;20181;-38
2023/02/06 00:43:15;;;;;;;11.75;7.28;;;;;;;-1.03;44.69;100975.56;5091256;28;20036;-36
2023/02/06 00:45:41;;;;;;;32.00;20.45;;;;;;;-0.94;44.77;100985.31;5090924;28;20020;-37
2023/02/06 00:48:08;;;;;;;27.50;14.57;;;;;;;-0.98;45.64;100983.88;5090989;28;20032;-36
2023/02/06 00:50:33;;;;;;;17.17;9.63;;;;;;;-0.98;44.96;100981.28;5072590;28;20142;-37
2023/02/06 00:52:59;;;;;;;24.27;12.68;;;;;;;-0.89;44.13;100971.84;5072877;28;20170;-38
2023/02/06 00:55:25;;;;;;;7.60;3.80;;;;;;;-1.08;44.61;100982.94;5090946;28;20035;-37
2023/02/06 00:57:50;;;;;;;7.10;4.38;;;;;;;-1.05;44.55;100974.84;5090889;28;20084;-37
2023/02/06 01:00:16;;;;;;;7.65;4.97;;;;;;;-1.34;44.04;100946.56;5091163;28;20028;-37
2023/02/06 01:02:41;;;;;;;9.65;6.72;;;;;;;-1.28;44.36;100977.47;5090314;28;20028;-37
2023/02/06 01:05:07;;;;;;;7.45;4.38;;;;;;;-1.13;44.14;100966.75;5090652;28;20077;-37
2023/02/06 01:07:37;;;;;;;6.13;3.33;;;;;;;-1.17;45.32;100975.81;5090754;28;20990;-37
2023/02/06 01:10:02;;;;;;;8.45;5.07;;;;;;;-1.02;44.23;100974.63;5072463;28;20024;-37
2023/02/06 01:12:28;;;;;;;9.20;6.60;;;;;;;-1.12;44.52;100956.19;5090476;28;20035;-37
2023/02/06 01:14:53;;;;;;;6.35;3.42;;;;;;;-0.94;44.24;100964.38;5090624;28;20020;-37
2023/02/06 01:17:18;;;;;;;8.30;5.70;;;;;;;-1.32;45.31;100957.72;5089924;28;20165;-37
2023/02/06 01:19:44;;;;;;;7.38;3.47;;;;;;;-1.07;43.96;100961.88;5090350;28;20165;-36
2023/02/06 01:22:09;;;;;;;7.13;3.20;;;;;;;-1.29;44.90;100933.97;5090675;28;20024;-37
2023/02/06 01:24:35;;;;;;;5.60;3.10;;;;;;;-1.04;44.32;100969.50;5090325;28;20028;-37
2023/02/06 01:27:00;;;;;;;4.63;2.03;;;;;;;-1.36;45.38;100973.81;5090373;28;20036;-37
2023/02/06 01:29:26;;;;;;;4.47;2.42;;;;;;;-1.25;45.30;100982.50;5089917;28;20055;-37
2023/02/06 01:31:51;;;;;;;9.30;5.15;;;;;;;-1.29;45.16;100954.03;5072062;28;20024;-37
2023/02/06 01:34:16;;;;;;;8.15;3.67;;;;;;;-1.09;45.21;100965.56;5089547;28;20024;-37
2023/02/06 01:36:42;;;;;;;15.73;9.27;;;;;;;-1.01;45.42;100973.66;5071912;28;20024;-37
2023/02/06 01:39:09;;;;;;;21.63;14.80;;;;;;;-1.10;45.70;100969.16;5071836;28;20051;-37
2023/02/06 01:41:34;;;;;;;9.40;4.72;;;;;;;-1.12;45.90;100960.59;5090257;28;20032;-37
2023/02/06 01:44:21;;;;;;;5.30;2.70;;;;;;;-1.20;46.24;100969.03;5090059;28;20035;-38
2023/02/06 01:46:51;;;;;;;14.38;8.65;;;;;;;-1.45;46.14;100949.16;5089880;28;20024;-37
2023/02/06 01:49:31;;;;;;;13.18;7.47;;;;;;;-1.47;46.44;100961.53;5089751;28;20043;-37
2023/02/06 01:52:06;;;;;;;17.67;9.48;;;;;;;-1.36;46.08;100974.63;5090053;28;20039;-37
2023/02/06 01:54:32;;;;;;;12.75;5.97;;;;;;;-1.04;44.97;100972.13;5089785;28;20028;-37
2023/02/06 01:57:03;;;;;;;15.30;8.93;;;;;;;-1.08;44.98;100962.00;5089711;28;20028;-37
2023/02/06 01:59:28;;;;;;;285.13;131.52;;;;;;;-1.29;46.25;100951.41;5089637;28;20419;-37
2023/02/06 02:01:54;;;;;;;55.50;34.30;;;;;;;-1.13;45.73;100958.91;5090079;28;20503;-37
2023/02/06 02:04:24;;;;;;;37.55;26.88;;;;;;;-1.07;45.61;100967.09;5089740;28;20028;-37
2023/02/06 02:07:01;;;;;;;48.95;34.70;;;;;;;-1.22;45.33;100942.97;5090101;28;20020;-37
2023/02/06 02:09:28;;;;;;;22.48;17.88;;;;;;;-1.20;46.50;100955.13;5089365;28;20040;-37
2023/02/06 02:11:53;;;;;;;10.43;8.25;;;;;;;-1.27;46.73;100958.22;5089932;28;20024;-37
2023/02/06 02:14:19;;;;;;;9.25;8.35;;;;;;;-1.47;46.83;100961.53;5071604;28;20477;-37
2023/02/06 02:17:05;;;;;;;7.82;6.55;;;;;;;-1.59;47.62;100952.00;5089598;28;20540;-38
2023/02/06 02:20:09;;;;;;;12.38;11.27;;;;;;;-1.43;47.19;100973.41;5089336;28;20076;-37
2023/02/06 02:22:46;;;;;;;8.55;7.28;;;;;;;-1.73;47.12;100979.25;5047165;28;20032;-37
2023/02/06 02:25:40;;;;;;;9.75;6.40;;;;;;;-1.68;47.07;100975.31;5083637;28;20158;-37
2023/02/06 02:28:22;;;;;;;49.70;35.20;;;;;;;-1.30;46.58;100971.53;5089062;28;20415;-38
2023/02/06 02:31:07;;;;;;;7.10;5.60;;;;;;;-1.24;45.23;100976.28;5089733;28;20077;-37
2023/02/06 02:33:44;;;;;;;15.23;13.82;;;;;;;-1.62;46.54;100977.44;5089127;28;20016;-37
2023/02/06 02:36:31;;;;;;;8.80;7.93;;;;;;;-1.59;47.00;100978.16;5071466;28;20067;-37
2023/02/06 02:39:23;;;;;;;9.90;7.47;;;;;;;-1.41;46.13;100995.06;5089016;28;20075;-37
2023/02/06 02:42:09;;;;;;;7.68;6.30;;;;;;;-1.78;47.15;100976.97;5089322;28;20051;-37
2023/02/06 02:44:44;;;;;;;7.25;4.60;;;;;;;-1.63;46.45;100981.03;5089406;28;20082;-37
2023/02/06 02:47:13;;;;;;;8.35;7.35;;;;;;;-1.45;45.89;100980.56;5090969;28;20101;-37
2023/02/06 02:49:42;;;;;;;6.50;4.43;;;;;;;-1.59;45.99;100989.50;5093191;28;20530;-37
2023/02/06 02:52:07;;;;;;;4.70;2.97;;;;;;;-1.52;46.34;100995.06;5075260;28;20043;-37
2023/02/06 02:54:33;;;;;;;11.38;9.48;;;;;;;-1.96;45.70;100944.38;5093241;28;20035;-37
2023/02/06 02:57:08;;;;;;;4.88;2.75;;;;;;;-1.81;44.87;100961.50;5092819;28;20027;-37
2023/02/06 02:59:37;;;;;;;6.88;4.90;;;;;;;-1.48;43.80;100986.88;5092906;28;20526;-37
2023/02/06 03:02:06;;;;;;;3.33;1.85;;;;;;;-1.48;44.89;100983.44;5092869;28;20066;-37
2023/02/06 03:04:49;;;;;;;3.80;1.70;;;;;;;-1.39;45.49;100993.16;5075395;28;20024;-37
2023/02/06 03:07:27;;;;;;;3.70;1.90;;;;;;;-1.35;45.64;100997.22;5092677;28;20028;-37
2023/02/06 03:10:02;;;;;;;5.47;2.75;;;;;;;-1.57;45.31;100960.56;5092956;28;20039;-37
2023/02/06 03:12:57;;;;;;;5.10;3.00;;;;;;;-1.51;43.79;100962.72;5093191;28;20028;-37
2023/02/06 03:15:38;;;;;;;11.68;8.10;;;;;;;-1.37;42.66;100988.66;5091542;28;20071;-37
2023/02/06 03:18:42;;;;;;;16.35;10.98;;;;;;;-1.37;42.83;100987.81;5092811;28;20088;-37
2023/02/06 03:21:12;;;;;;;11.80;7.82;;;;;;;-1.32;42.88;100983.91;5071135;28;20089;-37
2023/02/06 03:23:41;;;;;;;13.13;8.93;;;;;;;-1.56;43.40;100964.88;5092333;28;20020;-37
2023/02/06 03:26:10;;;;;;;23.23;15.13;;;;;;;-1.52;43.51;100979.38;5092880;28;20039;-37
2023/02/06 03:28:42;;;;;;;12.65;6.80;;;;;;;-1.58;43.01;100970.22;5092335;28;20032;-38
2023/02/06 03:31:12;;;;;;;24.30;18.27;;;;;;;-1.52;42.94;100963.69;5092732;28;20483;-37
2023/02/06 03:34:16;;;;;;;16.20;9.90;;;;;;;-1.45;43.40;100976.19;5092757;28;20494;-37
2023/02/06 03:36:41;;;;;;;33.33;20.42;;;;;;;-1.68;44.37;100954.38;5088338;28;20039;-38
2023/02/06 03:39:07;;;;;;;16.02;9.68;;;;;;;-1.49;44.22;100985.22;5092133;28;20055;-37
2023/02/06 03:41:36;;;;;;;19.67;10.48;;;;;;;-1.48;44.22;100976.41;5092254;28;20036;-37
2023/02/06 03:44:05;;;;;;;9.40;4.78;;;;;;;-1.65;43.40;100948.94;5092416;28;20085;-37
2023/02/06 03:46:32;;;;;;;5.82;2.75;;;;;;;-1.47;43.41;100966.75;5074164;28;20407;-37
2023/02/06 03:49:01;;;;;;;3.78;1.88;;;;;;;-1.50;45.78;100998.41;5092253;28;20111;-36
2023/02/06 03:51:39;;;;;;;6.50;2.75;;;;;;;-1.62;46.88;101001.00;5092058;28;20115;-37
2023/02/06 03:54:07;;;;;;;6.57;2.53;;;;;;;-1.73;46.70;100987.91;5092376;28;20024;-37
2023/02/06 03:56:38;;;;;;;4.47;2.03;;;;;;;-1.78;47.81;101005.72;5092162;28;20495;-38
2023/02/06 03:59:04;;;;;;;6.15;2.03;;;;;;;-1.81;47.93;100995.50;5091754;28;20111;-37
2023/02/06 04:01:29;;;;;;;6.15;2.50;;;;;;;-1.81;47.06;100987.66;5091999;28;20108;-37
2023/02/06 04:03:56;;;;;;;5.22;2.30;;;;;;;-2.06;48.77;100986.91;5091793;28;20027;-37
2023/02/06 04:06:21;;;;;;;3.83;2.10;;;;;;;-2.11;47.73;100983.78;5092243;28;20027;-36
2023/02/06 04:08:47;;;;;;;3.75;1.70;;;;;;;-2.09;47.89;100970.59;5091999;28;20058;-37
2023/02/06 04:11:12;;;;;;;3.95;1.88;;;;;;;-2.00;48.52;100995.22;5091614;28;20024;-37
2023/02/06 04:13:37;;;;;;;4.65;2.20;;;;;;;-2.18;49.24;100998.25;5073512;28;20020;-37
2023/02/06 04:16:03;;;;;;;5.90;2.22;;;;;;;-2.40;50.70;100972.03;5091612;28;20110;-38
2023/02/06 04:18:29;;;;;;;3.58;1.65;;;;;;;-2.70;51.26;100973.31;5091581;28;20020;-37
2023/02/06 04:20:54;;;;;;;4.68;1.98;;;;;;;-2.37;51.52;101003.16;5091310;28;20032;-37
2023/02/06 04:23:20;;;;;;;4.35;1.95;;;;;;;-2.63;52.24;100975.38;5091705;28;20027;-37
2023/02/06 04:25:46;;;;;;;4.70;2.10;;;;;;;-2.55;53.43;101000.94;5091489;28;20074;-37
2023/02/06 04:28:12;;;;;;;4.00;1.63;;;;;;;-2.44;53.94;100972.25;5091653;28;20126;-37
2023/02/06 04:30:37;;;;;;;5.07;2.40;;;;;;;-2.34;55.40;100987.28;5091462;28;20488;-37
2023/02/06 04:33:03;;;;;;;5.10;2.47;;;;;;;-2.22;54.41;100975.91;5091314;28;20019;-37
2023/02/06 04:35:29;;;;;;;7.57;3.10;;;;;;;-2.32;54.66;100960.06;5090880;28;20028;-36
2023/02/06 04:37:55;;;;;;;6.07;2.80;;;;;;;-2.03;55.46;100994.50;5091117;28;20097;-37
2023/02/06 04:40:20;;;;;;;50.00;25.35;;;;;;;-2.13;55.53;100990.91;5091437;28;20087;-37
2023/02/06 04:42:46;;;;;;;9.48;4.80;;;;;;;-2.17;56.49;100979.00;5090995;28;20035;-37
2023/02/06 04:45:11;;;;;;;14.48;5.78;;;;;;;-1.90;55.81;101001.41;5091598;28;20123;-38
2023/02/06 04:47:37;;;;;;;19.55;9.98;;;;;;;-1.94;56.91;101000.84;5090761;28;20054;-37
2023/02/06 04:50:03;;;;;;;10.65;6.38;;;;;;;-1.95;57.32;101008.78;5090889;28;20545;-37
2023/02/06 04:52:29;;;;;;;7.72;3.10;;;;;;;-1.89;57.06;101005.72;5091174;28;20090;-37
2023/02/06 04:54:54;;;;;;;8.38;3.47;;;;;;;-1.66;56.40;101025.72;5090882;28;20482;-38
2023/02/06 04:57:20;;;;;;;6.53;3.13;;;;;;;-2.12;57.27;100981.31;5090806;28;20026;-37
2023/02/06 04:59:45;;;;;;;10.48;4.57;;;;;;;-1.99;58.66;101012.56;5090754;28;20497;-37
2023/02/06 05:02:10;;;;;;;7.45;2.97;;;;;;;-1.97;59.09;101015.91;5090937;28;20032;-37
2023/02/06 05:04:37;;;;;;;8.70;3.35;;;;;;;-2.08;60.44;101014.94;5090490;28;20028;-37
2023/02/06 05:07:03;;;;;;;7.65;3.70;;;;;;;-2.06;62.08;101018.25;5091013;28;20031;-37
2023/02/06 05:09:28;;;;;;;9.00;4.40;;;;;;;-1.80;60.28;101025.09;5089590;28;20471;-37
2023/02/06 05:11:54;;;;;;;9.48;4.88;;;;;;;-1.89;61.13;101024.00;5090472;28;20081;-37
2023/02/06 05:14:19;;;;;;;10.20;4.88;;;;;;;-1.97;62.80;101031.59;5090586;28;20028;-37
2023/02/06 05:16:45;;;;;;;11.95;5.20;;;;;;;-2.05;63.59;101019.91;5090395;28;20035;-37
2023/02/06 05:19:10;;;;;;;11.38;4.72;;;;;;;-2.08;64.51;101012.31;5090386;28;20028;-36
2023/02/06 05:21:35;;;;;;;8.73;4.28;;;;;;;-1.96;63.12;101023.66;5090489;28;20476;-37
2023/02/06 05:24:01;;;;;;;14.93;7.13;;;;;;;-2.10;64.28;101045.56;5090565;28;20031;-38
2023/02/06 05:26:26;;;;;;;10.40;4.72;;;;;;;-1.98;64.59;101054.28;5090458;28;20020;-38
2023/02/06 05:28:54;;;;;;;15.15;5.28;;;;;;;-2.14;65.75;101031.06;5090475;28;20032;-37
2023/02/06 05:31:19;;;;;;;11.32;5.40;;;;;;;-2.26;67.50;101037.19;5090002;28;20027;-38
2023/02/06 05:33:50;;;;;;;404.50;119.30;;;;;;;-2.35;68.07;101037.84;5089990;28;20036;-37
2023/02/06 05:36:16;;;;;;;434.50;142.75;;;;;;;-2.11;67.23;101067.41;5090365;28;20527;-37
2023/02/06 05:38:42;;;;;;;37.78;17.25;;;;;;;-2.20;68.37;101083.78;5089916;28;20036;-37
2023/02/06 05:41:07;;;;;;;57.33;14.10;;;;;;;-2.43;70.10;101057.53;5090097;28;20028;-37
2023/02/06 05:43:33;;;;;;;51.17;13.23;;;;;;;-2.24;70.30;101082.31;5071638;28;20062;-38
2023/02/06 05:45:58;;;;;;;71.85;24.67;;;;;;;-2.62;71.56;101067.59;5090369;28;20024;-38
2023/02/06 05:48:24;;;;;;;48.22;18.42;;;;;;;-2.24;70.67;101098.84;5071414;28;20413;-37
2023/02/06 05:50:49;;;;;;;17.05;8.07;;;;;;;-2.42;70.72;101053.97;5090127;28;20027;-37
2023/02/06 05:53:15;;;;;;;20.63;7.95;;;;;;;-2.06;70.53;101107.13;5071574;28;20133;-37
2023/02/06 05:55:41;;;;;;;38.90;18.77;;;;;;;-1.99;70.32;101109.28;5090027;28;20031;-38
2023/02/06 05:58:06;;;;;;;14.43;7.32;;;;;;;-2.16;72.09;101087.00;5089870;28;20020;-36
2023/02/06 06:00:32;;;;;;;15.10;8.00;;;;;;;-1.88;71.05;101109.31;5089636;28;20041;-37
2023/02/06 06:02:57;;;;;;;14.85;8.13;;;;;;;-2.06;71.27;101101.91;5089695;28;20138;-37
2023/02/06 06:05:23;;;;;;;20.92;10.25;;;;;;;-2.00;71.67;101099.78;5089582;28;20023;-37
2023/02/06 06:07:48;;;;;;;41.58;20.95;;;;;;;-2.14;71.79;101085.94;5089802;28;20108;-37
2023/02/06 06:10:13;;;;;;;39.88;16.70;;;;;;;-2.10;72.22;101092.63;5089693;28;20127;-37
2023/02/06 06:12:39;;;;;;;41.30;26.95;;;;;;;-1.97;71.76;101110.03;5090028;28;20035;-38
2023/02/06 06:15:05;;;;;;;43.45;38.78;;;;;;;-2.00;72.94;101111.09;5089644;28;20328;-38
2023/02/06 06:17:30;;;;;;;23.55;12.50;;;;;;;-2.03;72.23;101101.66;5088999;28;20103;-37
2023/02/06 06:19:56;;;;;;;48.63;22.05;;;;;;;-1.92;72.10;101107.88;5089457;28;20081;-38
2023/02/06 06:22:21;;;;;;;23.40;10.60;;;;;;;-2.14;71.42;101080.72;5089406;28;20054;-37
2023/02/06 06:24:46;;;;;;;14.43;7.75;;;;;;;-2.15;73.19;101094.72;5089680;28;20034;-37
2023/02/06 06:27:12;;;;;;;16.70;8.15;;;;;;;-2.03;72.07;101088.59;5089756;28;20036;-37
2023/02/06 06:29:37;;;;;;;16.00;7.82;;;;;;;-1.89;71.87;101102.44;5089248;28;20028;-37
2023/02/06 06:32:05;;;;;;;13.55;6.38;;;;;;;-1.65;71.39;101121.56;5089083;28;20032;-38
2023/02/06 06:34:30;;;;;;;16.30;7.93;;;;;;;-1.88;70.89;101093.63;5089800;28;20027;-37
2023/02/06 06:36:56;;;;;;;12.25;5.88;;;;;;;-1.96;70.59;101101.22;5089075;28;20123;-37
2023/02/06 06:39:21;;;;;;;16.65;7.53;;;;;;;-1.94;70.38;101115.00;5088908;28;20534;-37
2023/02/06 06:41:47;;;;;;;15.00;7.97;;;;;;;-1.99;71.28;101098.84;5089578;28;20028;-37
2023/02/06 06:44:12;;;;;;;13.43;7.13;;;;;;;-2.21;72.32;101097.75;5089203;28;20020;-37
2023/02/06 06:46:37;;;;;;;18.48;9.23;;;;;;;-2.23;71.32;101094.44;5089172;28;20032;-37
2023/02/06 06:49:03;;;;;;;11.57;6.45;;;;;;;-1.94;69.82;101120.22;5089354;28;20024;-37
2023/02/06 06:51:28;;;;;;;12.63;7.80;;;;;;;-1.88;68.93;101107.56;5089354;28;20173;-37
2023/02/06 06:53:55;;;;;;;12.82;7.65;;;;;;;-1.71;68.43;101124.63;5089225;28;20039;-37
2023/02/06 06:56:21;;;;;;;13.90;6.53;;;;;;;-1.69;68.65;101109.66;5089398;28;20023;-37
2023/02/06 06:58:46;;;;;;;14.65;6.85;;;;;;;-1.51;68.82;101132.75;5089117;28;20449;-37
2023/02/06 07:01:13;;;;;;;13.50;7.45;;;;;;;-1.41;67.35;101138.97;5088788;28;20020;-39
2023/02/06 07:03:42;;;;;;;10.38;4.75;;;;;;;-2.03;65.01;101127.81;5089401;28;20063;-37
2023/02/06 07:06:09;;;;;;;13.05;6.05;;;;;;;-2.01;65.54;101135.53;5089106;28;20046;-37
2023/02/06 07:08:40;;;;;;;14.63;6.00;;;;;;;-1.86;65.00;101142.28;5089077;28;20035;-37
2023/02/06 07:11:09;;;;;;;13.15;5.50;;;;;;;-1.61;63.38;101150.94;5088922;28;20035;-37
2023/02/06 07:13:37;;;;;;;10.30;5.40;;;;;;;-1.75;63.37;101123.19;5088782;28;20099;-37
2023/02/06 07:16:03;;;;;;;10.02;4.60;;;;;;;-1.51;62.08;101144.09;5088837;28;20055;-38
2023/02/06 07:18:28;;;;;;;10.73;5.32;;;;;;;-1.34;61.63;101134.13;5088699;28;20511;-37
2023/02/06 07:20:54;;;;;;;10.50;5.45;;;;;;;-1.26;61.85;101158.78;5088885;28;20034;-37
2023/02/06 07:23:19;;;;;;;9.70;5.45;;;;;;;-1.29;60.62;101168.63;5088712;28;20458;-37
2023/02/06 07:25:45;;;;;;;15.90;7.00;;;;;;;-1.14;60.00;101171.91;5088917;28;20115;-37
2023/02/06 07:28:10;;;;;;;12.18;5.55;;;;;;;-0.97;60.34;101174.06;5089024;28;20115;-37
2023/02/06 07:30:35;;;;;;;19.42;8.55;;;;;;;-0.84;58.69;101166.94;5088870;28;20030;-37
2023/02/06 07:33:04;;;;;;;28.58;10.73;;;;;;;-0.90;57.19;101179.66;5090394;28;20024;-38
2023/02/06 07:35:29;;;;;;;35.03;16.20;;;;;;;-0.60;57.93;101186.97;5092304;28;20075;-38
2023/02/06 07:37:55;;;;;;;22.77;10.48;;;;;;;-0.30;58.55;101190.78;5092288;28;20680;-38
2023/02/06 07:40:23;;;;;;;18.08;8.75;;;;;;;-0.26;56.56;101189.56;5092381;28;20055;-38
2023/02/06 07:42:48;;;;;;;12.15;6.32;;;;;;;-0.46;54.76;101173.63;5092049;28;20036;-38
2023/02/06 07:45:14;;;;;;;8.63;4.53;;;;;;;-0.65;54.45;101158.50;5092258;28;20054;-37
2023/02/06 07:47:39;;;;;;;17.38;6.68;;;;;;;-0.39;54.69;101181.00;5092281;28;20028;-37
2023/02/06 07:50:05;;;;;;;9.93;4.20;;;;;;;-0.27;53.33;101198.38;5092200;28;20039;-37
2023/02/06 07:52:31;;;;;;;8.82;4.05;;;;;;;-0.53;53.81;101201.25;5092570;28;20036;-38
2023/02/06 07:54:56;;;;;;;30.55;12.95;;;;;;;-0.50;54.24;101192.31;5092188;28;20029;-38
2023/02/06 07:57:22;;;;;;;10.30;3.58;;;;;;;-0.70;52.21;101194.69;5091216;28;20042;-38
2023/02/06 07:59:47;;;;;;;11.27;4.82;;;;;;;-0.69;52.86;101196.38;5091444;28;20043;-37
2023/02/06 08:02:12;;;;;;;10.27;5.18;;;;;;;-0.45;53.08;101200.66;5091616;28;20095;-38
2023/02/06 08:04:38;;;;;;;9.32;5.03;;;;;;;-0.12;52.18;101210.28;5091434;28;20051;-38
2023/02/06 08:07:05;;;;;;;6.40;3.03;;;;;;;-0.44;51.58;101203.16;5091466;28;20016;-38
2023/02/06 08:09:31;;;;;;;9.98;5.75;;;;;;;-0.27;53.91;101199.22;5091001;28;20028;-37
2023/02/06 08:11:56;;;;;;;10.32;5.75;;;;;;;-0.55;51.64;101216.28;5073088;28;20028;-37
2023/02/06 08:14:23;;;;;;;10.23;4.90;;;;;;;-0.34;51.32;101210.31;5091553;28;20026;-37
2023/02/06 08:16:49;;;;;;;8.35;5.03;;;;;;;-0.08;51.49;101180.25;5091343;28;20016;-37
2023/02/06 08:19:14;;;;;;;13.93;5.68;;;;;;;0.09;49.51;101183.31;5091092;28;20024;-38
2023/02/06 08:21:40;;;;;;;34.45;14.18;;;;;;;0.07;50.02;101180.81;5091361;28;20020;-38
2023/02/06 08:24:05;;;;;;;14.05;6.57;;;;;;;0.45;49.32;101183.91;5091722;28;20415;-38
2023/02/06 08:26:31;;;;;;;15.68;6.43;;;;;;;0.39;48.36;101201.00;5091255;28;20021;-38
2023/02/06 08:29:00;;;;;;;10.35;4.38;;;;;;;0.21;49.14;101208.56;5072881;28;20028;-37
2023/02/06 08:31:29;;;;;;;8.73;3.60;;;;;;;-0.01;48.53;101199.78;5089779;28;20044;-37
2023/02/06 08:33:55;;;;;;;7.68;3.33;;;;;;;-0.25;46.89;101209.59;5091622;28;20024;-37
2023/02/06 08:36:22;;;;;;;10.02;3.97;;;;;;;-0.16;47.50;101218.50;5091703;28;20032;-36
2023/02/06 08:38:49;;;;;;;8.68;3.22;;;;;;;0.29;47.66;101214.03;5072830;28;20032;-37
2023/02/06 08:41:23;;;;;;;11.20;4.40;;;;;;;0.07;47.35;101216.69;5090905;28;20034;-36
2023/02/06 08:43:51;;;;;;;7.57;3.75;;;;;;;-0.18;47.23;101216.03;5090374;28;20024;-36
2023/02/06 08:46:19;;;;;;;9.63;4.32;;;;;;;0.01;48.71;101228.50;5091179;28;20024;-36
2023/02/06 08:48:45;;;;;;;7.30;3.50;;;;;;;0.15;46.80;101230.03;5088576;28;20147;-37
2023/02/06 08:51:11;;;;;;;8.05;3.60;;;;;;;-0.31;47.42;101233.66;5082041;28;20064;-37
2023/02/06 08:53:37;;;;;;;8.60;4.82;;;;;;;0.31;47.84;101219.97;5090397;28;20122;-37
2023/02/06 08:56:06;;;;;;;8.05;4.03;;;;;;;0.33;46.40;101204.13;5090719;28;20605;-37
2023/02/06 08:58:32;;;;;;;5.57;3.05;;;;;;;0.19;47.26;101231.47;5090625;28;20028;-38
2023/02/06 09:00:58;;;;;;;6.97;3.95;;;;;;;0.51;47.50;101213.13;5089627;28;20479;-37
2023/02/06 09:03:25;;;;;;;7.18;4.35;;;;;;;0.69;47.08;101223.88;5090397;28;20113;-37
2023/02/06 09:05:51;;;;;;;7.28;3.97;;;;;;;0.67;47.81;101204.81;5090546;28;20105;-37
2023/02/06 09:08:16;;;;;;;8.27;3.88;;;;;;;0.49;46.47;101187.94;5090326;28;20087;-37
2023/02/06 09:10:42;;;;;;;8.07;3.45;;;;;;;0.53;46.80;101211.22;5090856;28;20032;-37
2023/02/06 09:13:08;;;;;;;9.57;4.15;;;;;;;0.76;46.73;101209.31;5072535;28;20027;-37
2023/02/06 09:15:33;;;;;;;13.60;6.80;;;;;;;0.57;46.16;101199.50;5082607;28;20028;-37
2023/02/06 09:18:01;;;;;;;10.02;4.60;;;;;;;0.66;45.17;101182.16;5070052;28;20035;-37
2023/02/06 09:20:27;;;;;;;7.85;3.53;;;;;;;0.82;44.60;101201.88;5069903;28;20024;-37
2023/02/06 09:22:52;;;;;;;7.43;4.18;;;;;;;0.68;45.08;101192.53;5070120;28;20028;-37
2023/02/06 09:25:18;;;;;;;8.63;4.20;;;;;;;0.63;45.24;101161.38;5052005;28;20035;-37
2023/02/06 09:27:45;;;;;;;7.57;3.90;;;;;;;1.03;43.28;101178.25;5069860;28;20034;-37
2023/02/06 09:30:13;;;;;;;7.82;3.72;;;;;;;0.65;43.23;101196.22;5069841;28;20109;-37
2023/02/06 09:32:38;;;;;;;6.53;3.20;;;;;;;0.78;44.42;101167.19;5069776;28;20534;-37
2023/02/06 09:35:04;;;;;;;6.95;3.80;;;;;;;0.98;43.17;101178.59;5069628;28;20082;-37
2023/02/06 09:37:29;;;;;;;7.95;3.50;;;;;;;1.14;43.38;101202.63;5051162;28;20044;-36
2023/02/06 09:39:55;;;;;;;10.15;4.68;;;;;;;1.30;43.64;101196.91;5069514;28;20052;-37
2023/02/06 09:42:32;;;;;;;6.80;3.05;;;;;;;1.74;42.24;101194.06;5069746;28;20492;-37
2023/02/06 09:45:19;;;;;;;7.65;3.42;;;;;;;1.93;42.20;101196.75;5069809;28;20077;-37
2023/02/06 09:47:49;;;;;;;7.03;3.42;;;;;;;2.08;42.04;101180.56;5056787;28;20621;-37
2023/02/06 09:50:38;;;;;;;6.72;3.20;;;;;;;2.41;40.52;101196.00;5089864;28;20058;-37
2023/02/06 09:53:25;;;;;;;10.27;3.53;;;;;;;2.48;41.21;101203.34;5089676;28;20039;-37
2023/02/06 09:56:26;;;;;;;9.02;3.25;;;;;;;2.80;40.26;101185.44;5089146;28;20119;-36
2023/02/06 09:59:04;;;;;;;6.80;3.13;;;;;;;2.72;40.19;101185.31;5057797;28;20606;-37
2023/02/06 10:01:53;;;;;;;6.63;3.08;;;;;;;2.72;40.22;101174.78;5089484;28;20028;-37
2023/02/06 10:04:47;;;;;;;14.90;6.03;;;;;;;3.33;39.42;101177.97;5071312;28;20509;-36
2023/02/06 10:07:12;;;;;;;7.15;3.17;;;;;;;3.38;39.81;101186.28;5089759;28;20016;-37
2023/02/06 10:09:49;;;;;;;9.02;3.60;;;;;;;3.60;38.36;101179.81;5089353;28;20592;-37
2023/02/06 10:12:17;;;;;;;12.73;4.95;;;;;;;3.61;38.28;101169.09;5089523;28;20085;-37
2023/02/06 10:14:53;;;;;;;16.08;5.80;;;;;;;3.45;38.58;101168.88;5083087;28;20024;-37
2023/02/06 10:17:29;;;;;;;13.48;4.78;;;;;;;3.08;38.01;101159.16;5075082;28;20097;-37
2023/02/06 10:20:18;;;;;;;31.92;9.50;;;;;;;2.70;38.44;101137.22;5069093;28;20020;-37
2023/02/06 10:22:50;;;;;;;15.10;6.30;;;;;;;2.79;39.58;101160.06;5068329;28;20051;-37
2023/02/06 10:25:22;;;;;;;10.85;5.60;;;;;;;3.11;39.50;101151.00;5068698;28;20441;-37
2023/02/06 10:27:53;;;;;;;10.68;8.05;;;;;;;3.74;38.36;101157.38;5069197;28;20028;-38
2023/02/06 10:30:33;;;;;;;22.08;7.53;;;;;;;3.46;38.95;101154.75;5069097;28;20063;-37
2023/02/06 10:33:13;;;;;;;8.05;3.22;;;;;;;3.66;39.22;101165.19;5068756;28;20033;-37
2023/02/06 10:35:54;;;;;;;23.08;17.02;;;;;;;3.82;36.67;101165.38;5069402;28;20112;-36
2023/02/06 10:38:37;;;;;;;41.72;30.42;;;;;;;3.96;36.30;101164.91;5051599;28;20040;-36
2023/02/06 10:41:21;;;;;;;15.18;11.45;;;;;;;3.72;36.54;101164.59;5077967;28;20137;-36
2023/02/06 10:43:54;;;;;;;27.48;14.25;;;;;;;3.55;37.17;101145.13;5071544;28;20040;-37
2023/02/06 10:46:23;;;;;;;14.13;11.68;;;;;;;3.72;36.80;101157.53;5077492;28;20510;-37
2023/02/06 10:48:53;;;;;;;;;;;;;;;3.99;37.63;101145.28;5068170;28;20709;-37
2023/02/06 10:51:28;;;;;;;10.85;7.40;;;;;;;3.78;38.17;101121.78;5068567;28;19916;-37
2023/02/06 10:54:01;;;;;;;18.33;7.70;;;;;;;4.64;36.92;101147.69;5068968;28;20027;-38
2023/02/06 10:56:35;;;;;;;8.77;3.80;;;;;;;4.23;37.00;101110.38;5069006;28;20032;-37
2023/02/06 10:59:10;;;;;;;5.28;3.08;;;;;;;4.41;37.04;101127.03;5068724;28;20024;-38
2023/02/06 11:01:40;;;;;;;6.70;3.10;;;;;;;4.43;36.99;101117.16;5068505;28;20677;-38
2023/02/06 11:04:25;;;;;;;6.10;2.90;;;;;;;4.80;36.74;101115.25;5069779;28;20034;-37
2023/02/06 11:06:56;;;;;;;7.57;3.92;;;;;;;4.97;36.28;101093.22;5079270;28;20072;-37
2023/02/06 11:09:21;;;;;;;6.53;4.00;;;;;;;5.06;36.94;101131.13;5072370;28;20029;-37
2023/02/06 11:11:47;;;;;;;12.30;9.32;;;;;;;5.09;35.14;101114.94;5038094;28;20503;-37
2023/02/06 11:14:26;;;;;;;7.47;4.00;;;;;;;5.70;33.41;101138.66;5073208;28;20480;-37
2023/02/06 11:16:52;;;;;;;17.35;10.50;;;;;;;5.43;33.00;101148.50;5080635;28;20408;-37
2023/02/06 11:19:32;;;;;;;14.93;10.98;;;;;;;5.85;33.52;101134.44;5092467;28;20054;-37
2023/02/06 11:22:03;;;;;;;10.82;6.05;;;;;;;5.68;33.07;101138.00;5092815;28;20755;-37
2023/02/06 11:24:29;;;;;;;17.80;9.25;;;;;;;5.89;32.98;101130.47;5092876;28;20024;-37
2023/02/06 11:26:57;;;;;;;8.80;4.35;;;;;;;5.93;31.35;101133.63;5092644;28;20031;-37
2023/02/06 11:29:34;;;;;;;;;;;;;;;5.25;33.73;101140.66;5092970;28;20032;-37
2023/02/06 11:32:04;;;;;;;4.65;2.30;;;;;;;4.95;33.25;101113.72;5092256;28;19963;-37